Time;durP1;ratioP1;P1;durP2;ratioP2;P2;SDS_P1;SDS_P2;PMS_P1;PMS_P2;Temp;Humidity;BMP_temperature;BMP_pressure;BME280_temperature;BME280_humidity;BME280_pressure;Samples;Min_cycle;Max_cycle;Signal;HPM_P1;HPM_P2
2023/10/23 00:01:38;;;;;;;588.10;142.50;;;11.50;99.90;;;11.64;87.21;100416.06;4991395;28;20298;-68
2023/10/23 00:04:06;;;;;;;478.65;141.23;;;11.50;99.90;;;11.63;87.61;100415.22;5005577;28;20818;-68
2023/10/23 00:06:34;;;;;;;573.70;117.18;;;11.50;99.90;;;11.64;87.54;100416.06;4988836;28;20648;-68
2023/10/23 00:09:02;;;;;;;576.17;116.70;;;11.50;99.90;;;11.62;87.07;100416.19;4991430;28;20611;-68
2023/10/23 00:11:31;;;;;;;600.65;132.80;;;11.50;99.90;;;11.61;86.59;100424.13;4988587;28;20209;-69
2023/10/23 00:13:59;;;;;;;538.13;145.07;;;11.50;99.90;;;11.59;86.93;100423.44;5001679;28;20207;-69
2023/10/23 00:16:26;;;;;;;383.10;104.88;;;11.50;99.90;;;11.55;86.39;100425.47;4994054;28;20261;-68
2023/10/23 00:18:52;;;;;;;37.15;21.25;;;11.40;99.90;;;11.55;86.68;100422.00;4994127;28;20207;-69
2023/10/23 00:21:20;;;;;;;420.55;80.43;;;11.40;99.90;;;11.53;87.57;100421.31;4991524;28;20910;-68
2023/10/23 00:23:47;;;;;;;555.42;105.75;;;11.40;99.90;;;11.52;87.21;100428.31;4991167;28;20211;-68
2023/10/23 00:26:13;;;;;;;565.00;111.30;;;11.40;99.90;;;11.49;87.51;100422.50;4973163;28;20238;-68
2023/10/23 00:28:41;;;;;;;564.63;114.35;;;11.40;99.90;;;11.47;87.11;100420.03;4988114;28;20329;-68
2023/10/23 00:31:08;;;;;;;562.08;109.53;;;11.30;99.90;;;11.44;86.95;100428.09;4988470;28;20746;-68
2023/10/23 00:33:35;;;;;;;561.67;108.65;;;11.30;99.90;;;11.39;86.83;100418.97;4990170;28;20200;-69
2023/10/23 00:36:02;;;;;;;563.35;110.07;;;11.30;99.90;;;11.36;86.65;100420.03;4991208;28;20204;-68
2023/10/23 00:38:29;;;;;;;562.55;108.28;;;11.30;99.90;;;11.33;86.02;100422.06;4991814;28;20215;-69
2023/10/23 00:40:56;;;;;;;557.67;110.53;;;11.20;99.90;;;11.28;86.32;100418.97;4991453;28;20237;-68
2023/10/23 00:43:24;;;;;;;540.67;110.68;;;11.20;99.90;;;11.25;85.75;100429.63;4992293;28;20262;-69
2023/10/23 00:46:02;;;;;;;549.50;127.50;;;11.10;99.90;;;11.17;85.91;100425.03;4990860;28;20207;-69
2023/10/23 00:48:29;;;;;;;538.55;112.93;;;11.10;99.90;;;11.20;85.64;100431.78;4985824;28;20250;-69
2023/10/23 00:51:00;;;;;;;542.38;114.07;;;11.10;99.90;;;11.22;85.26;100432.50;4989586;28;20255;-69
2023/10/23 00:53:37;;;;;;;580.28;145.23;;;11.10;99.90;;;11.19;85.18;100433.56;4994464;28;20852;-69
2023/10/23 00:56:06;;;;;;;479.50;97.47;;;11.10;99.90;;;11.22;85.99;100425.47;4988498;28;20218;-68
2023/10/23 00:58:38;;;;;;;434.73;146.90;;;11.10;99.90;;;11.21;86.21;100430.81;4989679;28;20199;-69
2023/10/23 01:01:05;;;;;;;18.77;15.77;;;11.10;99.90;;;11.20;86.07;100426.56;4993688;28;20259;-69
2023/10/23 01:03:32;;;;;;;3.65;3.55;;;11.00;99.90;;;11.17;86.01;100427.63;4973859;28;20241;-67
2023/10/23 01:05:59;;;;;;;570.17;108.00;;;11.00;99.90;;;11.17;87.07;100425.03;4989954;28;20245;-69
2023/10/23 01:08:27;;;;;;;576.92;110.72;;;11.00;99.90;;;11.14;87.35;100424.44;4992844;28;21298;-67
2023/10/23 01:10:55;;;;;;;584.15;114.57;;;11.00;99.90;;;11.09;87.04;100429.16;4990155;28;20215;-68
2023/10/23 01:13:24;;;;;;;580.70;113.55;;;11.00;99.90;;;11.03;87.12;100424.44;4975061;28;20211;-69
2023/10/23 01:15:51;;;;;;;585.97;117.85;;;10.90;99.90;;;10.94;88.10;100424.16;5003880;28;20207;-69
2023/10/23 01:18:19;;;;;;;581.60;113.15;;;10.80;99.90;;;10.89;88.17;100423.69;4992572;28;20214;-69
2023/10/23 01:20:47;;;;;;;580.55;114.75;;;10.80;99.90;;;10.88;88.53;100432.47;4989684;28;20219;-69
2023/10/23 01:23:14;;;;;;;580.30;113.95;;;10.80;99.90;;;10.85;88.72;100419.66;4985379;28;20235;-69
2023/10/23 01:25:41;;;;;;;580.30;115.10;;;10.70;99.90;;;10.84;88.45;100425.81;4990199;28;20290;-69
2023/10/23 01:28:08;;;;;;;579.47;113.07;;;10.70;99.90;;;10.86;88.71;100425.72;4985299;28;20241;-69
2023/10/23 01:30:35;;;;;;;574.35;111.45;;;10.70;99.90;;;10.84;89.13;100424.97;4983946;28;20255;-68
2023/10/23 01:33:02;;;;;;;574.13;112.95;;;10.70;99.90;;;10.83;88.61;100423.34;4989679;28;20227;-68
2023/10/23 01:35:29;;;;;;;570.42;111.53;;;10.70;99.90;;;10.82;88.49;100426.88;4985699;28;20207;-69
2023/10/23 01:37:56;;;;;;;573.08;115.28;;;10.70;99.90;;;10.83;87.75;100425.94;4990043;28;20199;-69
2023/10/23 01:40:23;;;;;;;556.65;107.97;;;10.70;99.90;;;10.82;87.73;100422.50;4988667;28;20238;-68
2023/10/23 01:42:50;;;;;;;532.15;103.07;;;10.70;99.90;;;10.83;87.94;100426.78;4986270;28;20303;-69
2023/10/23 01:45:18;;;;;;;536.15;129.77;;;10.70;99.90;;;10.85;87.82;100421.44;4988569;28;20589;-69
2023/10/23 01:47:46;;;;;;;566.33;143.48;;;10.70;99.90;;;10.87;87.83;100420.38;4988843;28;20268;-69
2023/10/23 01:50:13;;;;;;;567.47;125.85;;;10.70;99.90;;;10.87;88.82;100419.53;4972676;28;20254;-68
2023/10/23 01:52:41;;;;;;;562.70;136.45;;;10.80;99.90;;;10.87;88.95;100420.38;4989973;28;20226;-70
2023/10/23 01:55:08;;;;;;;575.97;136.48;;;10.80;99.90;;;10.87;88.60;100422.16;4988285;28;20725;-69
2023/10/23 01:57:35;;;;;;;553.65;117.30;;;10.80;99.90;;;10.88;89.56;100411.59;4970474;28;20250;-69
2023/10/23 02:00:04;;;;;;;578.95;143.43;;;10.80;99.90;;;10.88;89.18;100406.38;4982949;28;20227;-69
2023/10/23 02:02:33;;;;;;;598.55;141.02;;;10.70;99.90;;;10.88;89.57;100414.19;4984447;28;20204;-68
2023/10/23 02:05:00;;;;;;;569.50;129.90;;;10.80;99.90;;;10.86;89.55;100413.47;4986821;28;20207;-69
2023/10/23 02:07:27;;;;;;;558.45;120.65;;;10.80;99.90;;;10.82;89.46;100422.50;4987953;28;20219;-69
2023/10/23 02:09:58;;;;;;;546.83;114.38;;;10.70;99.90;;;10.75;88.38;100421.28;4988783;28;20235;-69
2023/10/23 02:12:25;;;;;;;553.33;116.60;;;10.70;99.90;;;10.70;88.91;100431.28;4972856;28;20584;-68
2023/10/23 02:14:53;;;;;;;552.00;124.80;;;10.60;99.90;;;10.70;88.83;100422.59;4987036;28;20244;-69
2023/10/23 02:17:20;;;;;;;579.95;140.68;;;10.60;99.90;;;10.69;88.27;100420.97;4986188;28;20211;-69
2023/10/23 02:19:48;;;;;;;598.08;132.90;;;10.60;99.90;;;10.70;89.02;100420.84;4986797;28;20242;-69
2023/10/23 02:22:17;;;;;;;581.38;126.10;;;10.60;99.90;;;10.68;89.84;100419.28;4990131;28;20211;-69
2023/10/23 02:24:45;;;;;;;557.95;128.38;;;10.60;99.90;;;10.70;88.16;100422.59;4985909;28;20207;-68
2023/10/23 02:27:12;;;;;;;579.88;137.15;;;10.60;99.90;;;10.71;89.30;100426.88;4988841;28;20290;-68
2023/10/23 02:29:42;;;;;;;572.22;132.38;;;10.60;99.90;;;10.73;90.03;100425.00;4987129;28;20313;-68
2023/10/23 02:32:09;;;;;;;569.40;134.80;;;10.60;99.90;;;10.71;90.08;100422.47;4993878;28;20203;-69
2023/10/23 02:34:36;;;;;;;576.15;139.55;;;10.60;99.90;;;10.71;90.28;100419.88;4998918;28;20266;-68
2023/10/23 02:37:04;;;;;;;587.42;148.32;;;10.60;99.90;;;10.74;89.61;100427.47;4987729;28;20661;-67
2023/10/23 02:39:31;;;;;;;492.88;119.72;;;10.60;99.90;;;10.72;88.98;100426.75;4992435;28;20658;-68
2023/10/23 02:41:59;;;;;;;622.28;130.32;;;10.60;99.90;;;10.66;88.63;100419.41;4993353;28;20226;-67
2023/10/23 02:44:26;;;;;;;636.67;123.72;;;10.60;99.90;;;10.61;88.94;100424.13;4990223;28;20997;-68
2023/10/23 02:46:53;;;;;;;614.33;126.68;;;10.50;99.90;;;10.57;88.62;100422.69;4993116;28;20211;-69
2023/10/23 02:49:20;;;;;;;511.52;132.52;;;10.50;99.90;;;10.56;88.38;100426.25;4991006;28;20230;-68
2023/10/23 02:51:47;;;;;;;326.02;85.53;;;10.50;99.90;;;10.55;88.40;100435.03;5005817;28;20261;-68
2023/10/23 02:54:14;;;;;;;59.40;29.08;;;10.50;99.90;;;10.50;87.94;100431.91;4991734;28;20195;-67
2023/10/23 02:56:41;;;;;;;11.95;11.05;;;10.40;99.90;;;10.43;88.75;100440.31;4989791;28;20706;-68
2023/10/23 02:59:08;;;;;;;1.58;1.58;;;10.30;99.90;;;10.34;88.60;100431.41;4990596;28;20291;-68
2023/10/23 03:01:35;;;;;;;;;;;10.30;99.90;;;10.26;88.47;100430.31;4990337;28;20217;-69
2023/10/23 03:04:02;;;;;;;;;;;10.20;99.90;;;10.24;88.50;100425.22;4992623;28;19970;-68
2023/10/23 03:06:29;;;;;;;;;;;10.10;99.90;;;10.24;88.56;100421.78;4994863;28;20069;-68
2023/10/23 03:08:56;;;;;;;;;;;10.10;99.90;;;10.25;88.78;100426.88;4994078;28;20032;-68
2023/10/23 03:11:22;;;;;;;;;;;10.10;99.90;;;10.25;88.39;100426.88;4994507;28;20551;-68
2023/10/23 03:13:50;;;;;;;;;;;10.10;99.90;;;10.23;88.54;100427.91;4990350;28;20068;-69
2023/10/23 03:16:17;;;;;;;;;;;10.10;99.90;;;10.22;88.29;100434.09;4992733;28;19970;-68
2023/10/23 03:18:44;;;;;;;;;;;10.10;99.90;;;10.25;87.98;100431.25;4973335;28;19956;-68
2023/10/23 03:21:11;;;;;;;;;;;10.10;99.90;;;10.24;89.32;100435.66;4990661;28;19948;-67
2023/10/23 03:23:38;;;;;;;;;;;10.10;99.90;;;10.26;88.37;100430.31;4990016;28;20482;-69
2023/10/23 03:26:05;;;;;;;;;;;10.10;99.90;;;10.23;90.13;100433.97;4988952;28;19965;-68
2023/10/23 03:28:32;;;;;;;;;;;10.10;99.90;;;10.24;89.31;100437.41;5007821;28;19995;-69
2023/10/23 03:31:03;;;;;;;;;;;10.10;99.90;;;10.24;90.04;100437.41;4992158;28;19965;-68
2023/10/23 03:33:30;;;;;;;;;;;10.10;99.90;;;10.23;89.72;100438.34;4991323;28;20055;-69
2023/10/23 03:35:56;;;;;;;;;;;10.10;99.90;;;10.24;89.02;100440.88;4989335;28;19948;-68
2023/10/23 03:38:23;;;;;;;;;;;10.10;99.90;;;10.22;90.02;100432.31;4974757;28;20033;-69
2023/10/23 03:40:58;;;;;;;;;;;10.10;99.90;;;10.23;89.95;100433.13;4992238;28;20043;-67
2023/10/23 03:43:25;;;;;;;;;;;10.10;99.90;;;10.22;89.33;100437.53;4988721;28;20001;-68
2023/10/23 03:45:52;;;;;;;;;;;10.10;99.90;;;10.22;89.09;100436.69;5002629;28;20030;-67
2023/10/23 03:48:19;;;;;;;;;;;10.10;99.90;;;10.18;89.14;100436.06;4993327;28;20406;-68
2023/10/23 03:50:46;;;;;;;;;;;10.10;99.90;;;10.18;89.17;100440.47;4989863;28;19965;-69
2023/10/23 03:53:12;;;;;;;;;;;10.10;99.90;;;10.17;88.63;100436.19;4992397;28;20321;-69
2023/10/23 03:55:39;;;;;;;;;;;10.10;99.90;;;10.15;88.38;100441.53;4970522;28;20496;-68
2023/10/23 03:58:06;;;;;;;;;;;10.10;99.90;;;10.13;88.42;100438.19;4990326;28;20019;-68
2023/10/23 04:00:33;;;;;;;;;;;10.00;99.90;;;10.11;89.05;100445.31;4987097;28;19968;-68
2023/10/23 04:03:00;;;;;;;;;;;10.00;99.90;;;10.10;88.19;100439.25;4991399;28;20434;-67
2023/10/23 04:05:27;;;;;;;;;;;10.00;99.90;;;10.12;88.53;100436.53;4982175;28;19946;-68
2023/10/23 04:07:53;;;;;;;;;;;10.00;99.90;;;10.12;88.90;100436.53;4977895;28;19949;-69
2023/10/23 04:10:21;;;;;;;;;;;10.00;99.90;;;10.11;88.19;100434.88;4979511;28;20101;-68
2023/10/23 04:12:48;;;;;;;;;;;10.00;99.90;;;10.11;88.49;100434.88;4984661;28;19997;-68
2023/10/23 04:15:15;;;;;;;;;;;10.00;99.90;;;10.10;87.89;100428.81;4980587;28;19945;-67
2023/10/23 04:17:41;;;;;;;;;;;10.00;99.90;;;10.10;87.81;100425.34;4988409;28;20069;-67
2023/10/23 04:20:09;;;;;;;;;;;10.00;99.90;;;10.06;88.11;100427.34;5003761;28;19972;-68
2023/10/23 04:22:35;;;;;;;;;;;10.00;99.90;;;10.06;88.29;100423.91;4990171;28;19957;-68
2023/10/23 04:25:02;;;;;;;;;;;10.00;99.90;;;10.05;88.53;100425.69;4991938;28;19951;-68
2023/10/23 04:27:30;;;;;;;;;;;10.00;99.90;;;10.03;88.49;100421.50;5006966;28;20684;-68
2023/10/23 04:29:59;;;;;;;;;;;9.90;99.90;;;10.01;88.83;100423.41;4987745;28;19971;-69
2023/10/23 04:32:27;;;;;;;;;;;9.90;99.90;;;9.96;88.46;100421.16;4987726;28;19986;-68
2023/10/23 04:34:54;;;;;;;;;;;9.90;99.90;;;9.89;88.43;100416.47;4991335;28;19972;-69
2023/10/23 04:37:21;;;;;;;;;;;9.80;99.90;;;9.84;88.84;100411.59;4968920;28;20402;-68
2023/10/23 04:39:48;;;;;;;;;;;9.80;99.90;;;9.81;89.00;100417.06;4985148;28;20047;-68
2023/10/23 04:42:14;;;;;;;;;;;9.70;99.90;;;9.78;89.68;100416.41;4991395;28;20067;-68
2023/10/23 04:44:41;;;;;;;;;;;9.70;99.90;;;9.79;89.55;100413.72;4988713;28;19999;-67
2023/10/23 04:47:08;;;;;;;;;;;9.70;99.90;;;9.84;89.50;100415.97;4989067;28;20021;-68
2023/10/23 04:49:35;;;;;;;;;;;9.70;99.90;;;9.85;89.77;100410.66;4990674;28;20017;-68
2023/10/23 04:52:02;;;;;;;;;;;9.70;99.90;;;9.87;89.84;100413.16;4990969;28;19955;-68
2023/10/23 04:54:29;;;;;;;;;;;9.80;99.90;;;9.84;90.09;100408.16;4988225;28;19949;-68
2023/10/23 04:56:56;;;;;;;;;;;9.70;99.90;;;9.83;89.74;100409.94;4991093;28;19948;-68
2023/10/23 04:59:23;;;;;;;;;;;9.70;99.90;;;9.83;90.10;100409.94;4988087;28;19975;-68
2023/10/23 05:01:50;;;;;;;;;;;9.70;99.90;;;9.83;89.57;100415.16;4989183;28;19947;-68
2023/10/23 05:04:16;;;;;;;;;;;9.70;99.90;;;9.79;90.64;100412.88;4989290;28;19960;-68
2023/10/23 05:06:43;;;;;;;;;;;9.70;99.90;;;9.77;90.18;100419.97;4987352;28;20370;-66
2023/10/23 05:09:12;;;;;;;;;;;9.70;99.90;;;9.72;89.94;100409.88;4987746;28;19961;-68
2023/10/23 05:11:39;;;;;;;;;;;9.70;99.90;;;9.72;90.59;100406.44;4990492;28;20389;-68
2023/10/23 05:14:06;;;;;;;;;;;9.60;99.90;;;9.70;90.56;100401.34;4989418;28;19948;-68
2023/10/23 05:16:33;;;;;;;;;;;9.60;99.90;;;9.64;90.53;100403.56;4989122;28;19956;-68
2023/10/23 05:19:00;;;;;;;;;;;9.60;99.90;;;9.61;91.00;100403.75;4989424;28;19965;-68
2023/10/23 05:21:26;;;;;;;;;;;9.50;99.90;;;9.56;90.91;100411.91;4986776;28;20559;-68
2023/10/23 05:23:53;;;;;;;;;;;9.50;99.90;;;9.54;90.40;100412.97;4990445;28;19958;-68
2023/10/23 05:26:21;;;;;;;;;;;9.50;99.90;;;9.52;90.60;100413.06;4987256;28;20742;-68
2023/10/23 05:28:51;;;;;;;;;;;9.40;99.90;;;9.48;90.51;100411.63;4984483;28;19999;-69
2023/10/23 05:31:18;;;;;;;;;;;9.40;99.90;;;9.46;90.12;100405.69;4986021;28;20397;-69
2023/10/23 05:33:45;;;;;;;;;;;9.40;99.90;;;9.44;90.45;100407.56;5005568;28;19956;-68
2023/10/23 05:36:12;;;;;;;;;;;9.40;99.90;;;9.45;90.12;100408.41;4987215;28;19951;-68
2023/10/23 05:38:39;;;;;;;;;;;9.40;99.90;;;9.46;90.38;100408.28;4970374;28;20016;-67
2023/10/23 05:41:07;;;;;;;;;;;9.40;99.90;;;9.48;89.86;100409.03;4986600;28;20027;-69
2023/10/23 05:43:34;;;;;;;;;;;9.40;99.90;;;9.48;90.22;100419.44;4988395;28;20009;-69
2023/10/23 05:46:05;;;;;;;;;;;9.40;99.90;;;9.47;89.62;100420.41;4988843;28;19987;-68
2023/10/23 05:48:33;;;;;;;;;;;9.40;99.90;;;9.46;89.74;100423.09;4987774;28;19998;-68
2023/10/23 05:51:03;;;;;;;;;;;9.40;99.90;;;9.47;89.83;100422.16;4989951;28;20474;-68
2023/10/23 05:53:30;;;;;;;;;;;9.40;99.90;;;9.46;89.80;100425.69;5003276;28;20001;-69
2023/10/23 05:56:03;;;;;;;;;;;9.40;99.90;;;9.46;90.36;100426.53;4993119;28;20001;-69
2023/10/23 05:58:31;;;;;;;;;;;9.40;99.90;;;9.46;90.16;100426.53;4987216;28;20062;-68
2023/10/23 06:01:08;;;;;;;;;;;9.40;99.90;;;9.47;90.17;100422.16;5004805;28;20012;-69
2023/10/23 06:03:35;;;;;;;;;;;9.40;99.90;;;9.49;89.53;100422.88;4984853;28;20052;-70
2023/10/23 06:06:03;;;;;;;;;;;9.40;99.90;;;9.48;89.48;100427.25;4985636;28;20386;-68
2023/10/23 06:08:30;;;;;;;;;;;9.40;99.90;;;9.48;90.02;100427.25;4987728;28;20015;-70
2023/10/23 06:10:57;;;;;;;;;;;9.40;99.90;;;9.51;90.21;100424.44;4993098;28;19998;-69
2023/10/23 06:13:23;;;;;;;;;;;9.40;99.90;;;9.53;90.77;100422.56;4986276;28;19950;-69
2023/10/23 06:15:51;;;;;;;;;;;9.40;99.90;;;9.57;90.61;100429.22;4991481;28;19947;-69
2023/10/23 06:18:18;;;;;;;;;;;9.50;99.90;;;9.61;90.75;100420.22;4989738;28;19956;-69
2023/10/23 06:20:45;;;;;;;;;;;9.50;99.90;;;9.68;91.08;100416.25;4987427;28;19965;-68
2023/10/23 06:23:12;;;;;;;;;;;9.60;99.90;;;9.76;90.43;100421.75;5005006;28;19989;-69
2023/10/23 06:25:39;;;;;;;;;;;9.70;99.90;;;9.86;89.66;100419.31;4989317;28;19956;-69
2023/10/23 06:28:06;;;;;;;;;;;9.70;99.90;;;9.97;89.33;100414.16;4985464;28;20303;-69
2023/10/23 06:30:35;;;;;;;;;;;9.90;99.90;;;10.07;87.83;100423.78;4986087;28;19972;-69
2023/10/23 06:33:03;;;;;;;;;;;9.90;99.90;;;10.39;88.44;100428.47;4987534;28;20009;-69
2023/10/23 06:35:30;;;;;;;;;;;10.20;99.90;;;10.79;85.99;100432.34;4991672;28;20589;-67
2023/10/23 06:37:56;;;;;;;;;;;10.60;99.90;;;11.19;83.67;100430.94;4991071;28;19955;-69
2023/10/23 06:40:23;;;;;;;;;;;10.90;99.90;;;11.59;81.35;100428.66;5005377;28;19966;-69
2023/10/23 06:42:50;;;;;;;;;;;11.30;99.90;;;12.11;79.62;100431.41;4987855;28;19953;-69
2023/10/23 06:45:17;;;;;;;;;;;11.80;99.90;;;12.64;76.35;100426.97;5002891;28;20038;-69
2023/10/23 06:47:47;;;;;;;;;;;12.30;99.90;;;13.11;74.25;100431.69;4988256;28;19950;-70
2023/10/23 06:50:15;;;;;;;;;;;12.80;99.90;;;13.62;72.16;100428.97;4985607;28;20335;-69
2023/10/23 06:52:45;;;;;;;;;;;13.30;99.90;;;14.11;70.16;100422.81;4985891;28;20034;-70
2023/10/23 06:55:12;;;;;;;;;;;13.70;99.90;;;14.49;68.05;100422.84;4971297;28;20009;-70
2023/10/23 06:57:39;;;;;;;;;;;14.20;99.90;;;14.98;66.89;100418.28;4988761;28;20372;-69
2023/10/23 07:00:06;;;;;;;;;;;14.70;99.90;;;15.48;64.56;100404.69;4987854;28;20465;-69
2023/10/23 07:02:33;;;;;;;;;;;15.20;99.90;;;15.96;62.43;100399.09;4989124;28;19966;-69
2023/10/23 07:05:00;;;;;;;;;;;15.70;99.90;;;16.50;60.98;100419.19;4985466;28;19947;-69
2023/10/23 07:07:28;;;;;;;;;;;16.30;99.90;;;16.65;59.43;100415.00;5004951;28;20035;-69
2023/10/23 07:09:59;;;;;;;;;;;16.50;99.90;;;16.13;59.93;100410.59;4987328;28;20431;-66
2023/10/23 07:12:27;;;;;;;;;;;16.20;99.90;;;15.42;62.19;100421.00;4990041;28;19954;-69
2023/10/23 07:14:54;;;;;;;;;;;15.60;99.90;;;14.89;64.38;100427.84;4986363;28;20477;-68
2023/10/23 07:17:21;;;;;;;;;;;15.00;99.90;;;14.55;65.98;100424.88;4985079;28;20000;-69
2023/10/23 07:19:48;;;;;;;;;;;14.60;99.90;;;14.48;67.34;100423.78;5015447;28;19976;-69
2023/10/23 07:22:15;;;;;;;;;;;14.50;99.90;;;14.56;66.79;100425.72;5006754;28;20487;-70
2023/10/23 07:24:41;;;;;;;;;;;14.50;99.90;;;14.53;65.72;100424.22;4991482;28;20490;-69
2023/10/23 07:27:11;;;;;;;;;;;14.60;99.90;;;14.28;66.44;100416.88;5006087;28;19954;-68
2023/10/23 07:29:39;;;;;;;;;;;14.40;99.90;;;13.97;67.98;100412.72;4989234;28;20074;-69
2023/10/23 07:32:06;;;;;;;;;;;14.10;99.90;;;13.68;68.94;100417.09;4992706;28;20047;-69
2023/10/23 07:34:33;;;;;;;;;;;13.80;99.90;;;13.32;70.52;100401.97;4983900;28;19952;-68
2023/10/23 07:37:00;;;;;;;;;;;13.40;99.90;;;13.06;72.38;100405.06;4991074;28;20484;-68
2023/10/23 07:39:27;;;;;;;;;;;13.10;99.90;;;12.89;73.48;100403.00;4985763;28;20068;-68
2023/10/23 07:41:54;;;;;;;;;;;12.90;99.90;;;12.81;73.90;100407.22;5004900;28;19962;-69
2023/10/23 07:44:21;;;;;;;;;;;12.80;99.90;;;12.74;75.24;100401.69;4990633;28;19955;-69
2023/10/23 07:46:48;;;;;;;;;;;12.70;99.90;;;12.59;74.67;100402.97;5007517;28;20640;-69
2023/10/23 07:49:15;;;;;;;;;;;12.60;99.90;;;12.43;76.02;100398.22;5005074;28;19964;-69
2023/10/23 07:51:42;;;;;;;;;;;12.50;99.90;;;12.33;76.82;100394.66;4992308;28;19964;-69
2023/10/23 07:54:09;;;;;;;;;;;12.30;99.90;;;12.24;77.90;100398.06;4989334;28;20475;-69
2023/10/23 07:56:35;;;;;;;;;;;12.20;99.90;;;12.19;78.85;100389.75;4992105;28;20037;-70
2023/10/23 07:59:02;;;;;;;;;;;12.20;99.90;;;12.06;79.29;100389.09;4971929;28;19971;-67
2023/10/23 08:01:29;;;;;;;;;;;12.00;99.90;;;11.93;80.51;100377.13;4991034;28;20031;-68
2023/10/23 08:03:56;;;;;;;;;;;11.90;99.90;;;11.81;80.84;100381.59;4990396;28;19954;-68
2023/10/23 08:06:23;;;;;;;;;;;11.80;99.90;;;11.73;81.75;100380.56;4991131;28;20035;-69
2023/10/23 08:08:50;;;;;;;;;;;11.70;99.90;;;11.57;82.45;100388.75;4992293;28;20057;-69
2023/10/23 08:11:17;;;;;;;;;;;11.60;99.90;;;11.48;82.62;100386.88;4992543;28;19971;-68
2023/10/23 08:13:44;;;;;;;;;;;11.40;99.90;;;11.36;84.62;100386.06;4997106;28;19998;-70
2023/10/23 08:16:10;;;;;;;;;;;11.30;99.90;;;11.31;85.00;100385.59;4995707;28;19996;-69
2023/10/23 08:18:38;;;;;;;;;;;11.30;99.90;;;11.30;85.79;100388.34;4992457;28;19945;-67
2023/10/23 08:21:09;;;;;;;;;;;11.20;99.90;;;11.28;85.64;100382.41;4989381;28;19951;-69
2023/10/23 08:23:35;;;;;;;;;;;11.20;99.90;;;11.23;86.59;100379.31;4992371;28;19980;-69
2023/10/23 08:26:03;;;;;;;;;;;11.10;99.90;;;11.27;87.10;100378.94;4984807;28;20030;-70
2023/10/23 08:28:30;;;;;;;;;;;11.20;99.90;;;11.27;87.54;100384.16;4993836;28;19956;-70
2023/10/23 08:31:17;;;;;;;;;;;11.20;99.90;;;11.25;88.44;100388.69;4990063;28;19956;-70
2023/10/23 08:34:00;;;;;;;;;;;11.20;99.90;;;11.25;88.34;100388.69;4987560;28;20045;-70
2023/10/23 08:36:27;;;;;;;;;;;11.20;99.90;;;11.16;87.40;100384.19;4990216;28;19997;-70
2023/10/23 08:38:54;;;;;;;;;;;11.10;99.90;;;11.05;88.70;100384.22;4991717;28;20032;-70
2023/10/23 08:41:22;;;;;;;;;;;11.00;99.90;;;10.98;89.33;100392.63;4998349;28;19955;-70
2023/10/23 08:43:49;;;;;;;;;;;11.00;99.90;;;11.00;91.18;100386.34;4991100;28;19952;-69
2023/10/23 08:46:15;;;;;;;;;;;10.90;99.90;;;11.07;90.74;100379.69;4987477;28;20038;-70
2023/10/23 08:48:42;;;;;;;;;;;11.00;99.90;;;11.14;90.89;100387.88;5004067;28;20454;-70
2023/10/23 08:51:09;;;;;;;;;;;11.00;99.90;;;11.16;89.64;100380.75;5006213;28;20349;-70
2023/10/23 08:54:01;;;;;;;;;;;11.10;99.90;;;11.15;90.01;100387.75;4989790;28;20004;-70
2023/10/23 08:56:41;;;;;;;;;;;11.00;99.90;;;11.19;90.72;100383.09;4987784;28;19971;-70
2023/10/23 08:59:13;;;;;;;;;;;11.00;99.90;;;11.19;90.25;100381.34;4987590;28;19968;-70
2023/10/23 09:01:41;;;;;;;;;;;11.10;99.90;;;11.22;90.84;100362.81;4989587;28;20337;-70
2023/10/23 09:04:10;;;;;;;;;;;11.10;99.90;;;11.30;90.68;100360.44;4989178;28;19950;-69
2023/10/23 09:06:38;;;;;;;;;;;11.20;99.90;;;11.30;89.96;100357.00;4990816;28;20039;-69
2023/10/23 09:09:05;;;;;;;;;;;11.20;99.90;;;11.31;90.59;100356.84;4982043;28;20359;-69
2023/10/23 09:11:39;;;;;;;;;;;11.20;99.90;;;11.41;91.33;100372.66;4985221;28;19963;-71
2023/10/23 09:14:06;;;;;;;;;;;11.20;99.90;;;11.46;90.62;100370.47;4986522;28;19955;-69
2023/10/23 09:16:33;;;;;;;;;;;11.30;99.90;;;11.47;91.09;100373.00;5005581;28;19949;-70
2023/10/23 09:19:00;;;;;;;;;;;11.30;99.90;;;11.49;90.65;100376.31;4989586;28;19969;-70
2023/10/23 09:21:27;;;;;;;;;;;11.30;99.90;;;11.53;90.77;100374.28;4988230;28;19954;-70
2023/10/23 09:23:56;;;;;;;;;;;11.40;99.90;;;11.52;89.90;100380.47;4990867;28;20032;-70
2023/10/23 09:26:24;;;;;;;;;;;11.40;99.90;;;11.52;89.96;100372.63;4986911;28;19995;-69
2023/10/23 09:28:53;;;;;;;;;;;11.40;99.90;;;11.57;91.97;100362.63;5005856;28;19954;-70
2023/10/23 09:31:21;;;;;;;;;;;11.40;99.90;;;11.68;91.14;100360.84;4989864;28;19969;-70
2023/10/23 09:33:50;;;;;;;561.67;106.15;;;11.50;99.90;;;11.79;90.98;100364.38;4988631;28;20405;-68
2023/10/23 09:36:18;;;;;;;595.05;119.22;;;11.60;99.90;;;11.82;89.51;100353.69;4987616;28;20208;-70
2023/10/23 09:39:00;;;;;;;584.65;117.97;;;11.70;99.90;;;11.85;89.73;100351.63;4988686;28;20210;-69
2023/10/23 09:41:27;;;;;;;604.47;129.23;;;11.70;99.90;;;11.90;90.03;100353.88;4989891;28;20214;-70
2023/10/23 09:43:58;;;;;;;594.75;124.88;;;11.70;99.90;;;11.97;90.57;100345.41;4989495;28;20207;-71
2023/10/23 09:46:25;;;;;;;584.97;118.47;;;11.80;99.90;;;12.04;89.73;100354.41;4988247;28;20210;-70
2023/10/23 09:48:58;;;;;;;584.72;116.75;;;11.90;99.90;;;12.01;89.65;100352.03;4988878;28;20203;-68
2023/10/23 09:51:39;;;;;;;585.92;117.18;;;11.90;99.90;;;12.03;89.25;100352.72;4971459;28;20226;-69
2023/10/23 09:54:19;;;;;;;589.15;123.38;;;11.90;99.90;;;12.01;90.33;100341.56;4985635;28;20209;-71
2023/10/23 09:56:51;;;;;;;587.72;118.15;;;11.90;99.90;;;12.08;90.75;100349.75;4986907;28;20199;-69
2023/10/23 09:59:25;;;;;;;586.20;116.20;;;11.90;99.90;;;12.20;91.15;100346.94;4989490;28;20216;-69
2023/10/23 10:01:57;;;;;;;594.35;122.75;;;12.00;99.90;;;12.33;90.02;100346.75;4987834;28;20732;-69
2023/10/23 10:04:41;;;;;;;587.10;121.45;;;12.10;99.90;;;12.38;88.29;100337.56;4984227;28;20215;-69
2023/10/23 10:07:11;;;;;;;582.05;116.30;;;12.20;99.90;;;12.32;88.00;100337.25;4989540;28;20303;-69
2023/10/23 10:09:38;;;;;;;586.28;118.70;;;12.20;99.90;;;12.34;88.96;100333.56;4961518;28;20227;-70
2023/10/23 10:12:07;;;;;;;597.30;126.28;;;12.20;99.90;;;12.38;88.36;100339.34;4989016;28;20238;-70
2023/10/23 10:14:35;;;;;;;582.45;115.40;;;12.20;99.90;;;12.43;87.84;100340.66;4981385;28;20203;-69
2023/10/23 10:17:04;;;;;;;583.20;116.18;;;12.30;99.90;;;12.32;87.24;100340.72;4985157;28;20211;-69
2023/10/23 10:19:31;;;;;;;582.65;118.00;;;12.20;99.90;;;12.27;87.95;100347.25;4988259;28;20226;-68
2023/10/23 10:22:26;;;;;;;581.92;120.25;;;12.10;99.90;;;12.28;88.38;100352.38;4986703;28;20253;-69
2023/10/23 10:24:54;;;;;;;593.10;127.03;;;12.20;99.90;;;12.28;88.15;100349.78;4992369;28;20210;-69
2023/10/23 10:27:21;;;;;;;587.65;121.30;;;12.20;99.90;;;12.32;88.15;100340.72;4971722;28;20226;-69
2023/10/23 10:29:48;;;;;;;586.78;120.07;;;12.20;99.90;;;12.30;89.22;100332.16;4968983;28;20327;-70
2023/10/23 10:32:15;;;;;;;587.95;121.45;;;12.20;99.90;;;12.28;88.95;100328.00;4978755;28;20234;-70
2023/10/23 10:34:45;;;;;;;583.22;119.43;;;12.20;99.90;;;12.29;89.89;100327.88;4985040;28;20226;-69
2023/10/23 10:37:14;;;;;;;578.38;115.40;;;12.20;99.90;;;12.28;89.75;100323.59;4985375;28;20200;-70
2023/10/23 10:39:46;;;;;;;576.33;116.75;;;12.20;99.90;;;12.26;89.92;100319.47;4976761;28;20262;-69
2023/10/23 10:42:23;;;;;;;577.30;119.35;;;12.10;99.90;;;12.30;90.43;100311.22;4988994;28;20217;-69